Terminal Aerodrome Forecast
Issued by NWS Atlanta, GA

Home | Current Version | Previous Version | Text Only | Print | Product List | Glossary On
Versions: 1 2 3 4 5 6 7 8 9 10 11 12 13 14 15 16 17 18 19
000
FTUS42 KFFC 201400 AAA
TAFCSG
TAF AMD
KCSG 201412Z 2014/2112 06012G20KT P6SM OVC025
     FM202100 06010KT P6SM BKN040
     FM210000 06005KT P6SM FEW050 SCT250=

USA.gov is the U.S. government's official web portal to all federal, state and local government web resources and services.